Time;durP1;ratioP1;P1;durP2;ratioP2;P2;SDS_P1;SDS_P2;PMS_P1;PMS_P2;Temp;Humidity;BMP_temperature;BMP_pressure;BME280_temperature;BME280_humidity;BME280_pressure;Samples;Min_cycle;Max_cycle;Signal;HPM_P1;HPM_P2
2023/06/09 00:01:53;;;;;;;6.32;2.25;;;;;;;13.72;100.00;101608.72;5110592;28;20062;-69
2023/06/09 00:04:23;;;;;;;6.40;2.30;;;;;;;13.79;100.00;101623.41;5109210;28;20050;-69
2023/06/09 00:06:52;;;;;;;6.15;2.42;;;;;;;13.84;100.00;101620.56;5113331;28;20053;-70
2023/06/09 00:09:20;;;;;;;5.40;1.80;;;;;;;13.91;100.00;101614.16;5114445;27;20065;-69
2023/06/09 00:11:49;;;;;;;5.40;2.05;;;;;;;13.63;100.00;101593.28;5111609;28;20393;-69
2023/06/09 00:14:16;;;;;;;6.43;2.00;;;;;;;13.72;100.00;101616.63;5109980;28;20044;-69
2023/06/09 00:16:45;;;;;;;6.32;2.22;;;;;;;13.68;100.00;101605.34;5113068;28;20040;-69
2023/06/09 00:19:16;;;;;;;7.22;2.20;;;;;;;13.70;100.00;101604.44;5114012;28;20048;-69
2023/06/09 00:21:49;;;;;;;6.15;2.10;;;;;;;13.62;100.00;101605.59;5099118;28;20055;-69
2023/06/09 00:24:21;;;;;;;5.30;2.15;;;;;;;13.62;100.00;101605.59;5113893;28;20077;-68
2023/06/09 00:26:51;;;;;;;6.68;2.28;;;;;;;13.69;100.00;101600.97;5105500;28;20047;-69
2023/06/09 00:29:23;;;;;;;6.38;2.30;;;;;;;13.72;100.00;101589.44;5113988;28;20051;-69
2023/06/09 00:31:50;;;;;;;6.97;2.43;;;;;;;13.72;100.00;101600.81;5106379;28;20408;-69
2023/06/09 00:34:17;;;;;;;6.38;2.30;;;;;;;13.75;100.00;101600.72;5106073;28;20130;-69
2023/06/09 00:36:44;;;;;;;5.57;2.03;;;;;;;13.83;100.00;101584.66;5108655;28;20051;-69
2023/06/09 00:39:11;;;;;;;4.95;1.92;;;;;;;13.89;100.00;101589.69;5114081;27;20052;-69
2023/06/09 00:41:39;;;;;;;6.13;1.95;;;;;;;13.91;100.00;101587.00;5112238;28;20058;-69
2023/06/09 00:44:06;;;;;;;7.05;2.38;;;;;;;13.73;100.00;101580.66;5113573;28;20052;-69
2023/06/09 00:46:34;;;;;;;5.55;2.20;;;;;;;13.77;100.00;101574.34;5110454;28;20047;-69
2023/06/09 00:49:01;;;;;;;7.20;2.30;;;;;;;13.72;100.00;101571.03;5113376;28;20070;-69
2023/06/09 00:51:29;;;;;;;6.93;2.45;;;;;;;13.57;100.00;101581.22;5113571;28;20100;-69
2023/06/09 00:53:57;;;;;;;7.88;2.63;;;;;;;13.39;100.00;101553.81;5113095;28;20048;-69
2023/06/09 00:56:24;;;;;;;6.78;2.30;;;;;;;13.43;100.00;101562.44;5111216;28;20067;-69
2023/06/09 00:58:51;;;;;;;6.70;2.60;;;;;;;13.57;100.00;101573.31;5111088;28;20066;-69
2023/06/09 01:01:18;;;;;;;5.70;2.10;;;;;;;13.64;100.00;101580.06;5112944;28;20054;-69
2023/06/09 01:03:46;;;;;;;5.85;2.28;;;;;;;13.66;100.00;101580.88;5107987;27;20455;-69
2023/06/09 01:06:32;;;;;;;6.43;2.33;;;;;;;13.65;100.00;101566.00;5110848;28;20044;-69
2023/06/09 01:09:13;;;;;;;6.78;2.22;;;;;;;13.62;100.00;101579.28;5112322;28;20055;-69
2023/06/09 01:11:48;;;;;;;6.60;2.28;;;;;;;13.41;100.00;101586.16;5112068;28;20044;-69
2023/06/09 01:14:32;;;;;;;6.40;2.10;;;;;;;13.45;100.00;101574.59;5112864;28;20048;-70
2023/06/09 01:17:07;;;;;;;7.95;2.80;;;;;;;13.34;100.00;101570.66;5110145;28;20048;-69
2023/06/09 01:19:43;;;;;;;6.18;2.10;;;;;;;13.14;100.00;101559.06;5112269;28;20593;-69
2023/06/09 01:22:15;;;;;;;6.55;2.15;;;;;;;13.16;100.00;101573.00;5112054;28;20104;-69
2023/06/09 01:25:17;;;;;;;5.90;2.70;;;;;;;13.19;100.00;101572.03;5112605;28;20054;-69
2023/06/09 01:27:46;;;;;;;6.45;2.10;;;;;;;13.14;100.00;101561.69;5090037;28;20050;-69
2023/06/09 01:30:16;;;;;;;7.15;2.75;;;;;;;13.12;100.00;101558.25;5112495;28;20043;-69
2023/06/09 01:32:44;;;;;;;7.90;2.42;;;;;;;13.00;100.00;101540.28;5110174;28;20044;-70
2023/06/09 01:35:12;;;;;;;6.18;2.17;;;;;;;13.01;100.00;101557.75;5111898;28;20109;-69
2023/06/09 01:37:39;;;;;;;7.45;2.13;;;;;;;13.03;100.00;101556.81;5096410;28;20512;-69
2023/06/09 01:40:07;;;;;;;5.93;2.33;;;;;;;13.06;100.00;101550.56;5104516;28;20127;-69
2023/06/09 01:42:34;;;;;;;6.88;2.53;;;;;;;12.80;100.00;101549.72;5090224;28;20489;-69
2023/06/09 01:45:00;;;;;;;7.22;2.67;;;;;;;12.67;100.00;101556.28;5090672;28;20131;-69
2023/06/09 01:47:27;;;;;;;9.07;3.08;;;;;;;12.53;100.00;101557.56;5111354;28;20039;-69
2023/06/09 01:50:04;;;;;;;5.70;2.15;;;;;;;12.82;100.00;101549.63;5112794;28;20078;-70
2023/06/09 01:52:53;;;;;;;6.88;2.30;;;;;;;13.05;100.00;101530.44;5111019;28;20055;-68
2023/06/09 01:55:44;;;;;;;5.60;2.15;;;;;;;13.25;100.00;101545.53;5111388;28;20524;-68
2023/06/09 01:58:22;;;;;;;7.97;2.50;;;;;;;12.91;100.00;101559.84;5100476;28;20503;-68
2023/06/09 02:00:51;;;;;;;9.18;3.78;;;;;;;12.24;100.00;101557.66;5111873;28;20139;-68
2023/06/09 02:03:20;;;;;;;9.43;3.28;;;;;;;11.86;100.00;101555.25;5111757;28;20143;-68
2023/06/09 02:05:49;;;;;;;9.57;2.80;;;;;;;11.99;100.00;101540.06;5102070;28;20048;-69
2023/06/09 02:08:15;;;;;;;6.70;2.60;;;;;;;12.22;100.00;101539.34;5112346;28;20142;-68
2023/06/09 02:10:42;;;;;;;7.45;2.90;;;;;;;12.21;100.00;101534.97;5112184;28;20394;-68
2023/06/09 02:13:12;;;;;;;8.65;2.92;;;;;;;12.62;100.00;101545.06;5112241;28;20485;-68
2023/06/09 02:15:39;;;;;;;8.48;2.35;;;;;;;12.53;100.00;101539.19;5108293;28;20045;-68
2023/06/09 02:18:07;;;;;;;9.20;3.13;;;;;;;12.48;100.00;101532.38;5109664;28;20507;-69
2023/06/09 02:20:33;;;;;;;7.32;2.97;;;;;;;12.24;100.00;101529.63;5097900;28;20121;-69
2023/06/09 02:23:00;;;;;;;7.95;2.38;;;;;;;12.28;100.00;101533.88;5108935;28;20143;-69
2023/06/09 02:25:28;;;;;;;6.78;2.85;;;;;;;12.06;100.00;101527.59;5109901;28;20044;-69
2023/06/09 02:27:55;;;;;;;8.43;3.45;;;;;;;11.99;100.00;101531.31;5108505;28;20568;-69
2023/06/09 02:30:21;;;;;;;10.15;3.05;;;;;;;11.89;100.00;101528.09;5110809;28;20053;-69
2023/06/09 02:32:49;;;;;;;9.15;3.20;;;;;;;11.88;100.00;101507.97;5109552;28;20051;-69
2023/06/09 02:35:16;;;;;;;7.43;2.67;;;;;;;11.99;100.00;101516.44;5110657;28;20043;-69
2023/06/09 02:37:42;;;;;;;8.93;3.00;;;;;;;12.29;100.00;101514.59;5110629;28;20058;-69
2023/06/09 02:40:10;;;;;;;8.63;3.08;;;;;;;11.86;100.00;101517.66;5107288;28;20058;-69
2023/06/09 02:42:37;;;;;;;9.05;3.63;;;;;;;11.69;100.00;101519.03;5102448;28;20054;-69
2023/06/09 02:45:06;;;;;;;8.75;2.95;;;;;;;11.67;100.00;101517.34;5108474;28;20057;-69
2023/06/09 02:47:33;;;;;;;8.45;3.00;;;;;;;11.84;100.00;101501.97;5111161;28;20047;-68
2023/06/09 02:50:00;;;;;;;8.88;3.10;;;;;;;12.04;100.00;101516.28;5111088;28;20651;-68
2023/06/09 02:52:28;;;;;;;8.02;2.72;;;;;;;11.90;100.00;101507.06;5110845;28;20473;-68
2023/06/09 02:54:55;;;;;;;6.72;2.50;;;;;;;11.74;100.00;101511.06;5109760;28;20552;-69
2023/06/09 02:57:22;;;;;;;7.25;2.42;;;;;;;11.87;100.00;101499.25;5110750;28;20048;-69
2023/06/09 02:59:48;;;;;;;8.10;2.67;;;;;;;12.13;100.00;101508.13;5101521;28;20510;-69
2023/06/09 03:02:15;;;;;;;8.50;3.00;;;;;;;12.22;100.00;101506.97;5104383;28;20396;-69
2023/06/09 03:04:42;;;;;;;6.50;2.53;;;;;;;11.94;100.00;101508.69;5110859;28;20610;-69
2023/06/09 03:07:16;;;;;;;6.88;2.60;;;;;;;12.15;100.00;101506.31;5110774;28;20044;-69
2023/06/09 03:09:43;;;;;;;6.97;2.78;;;;;;;12.36;100.00;101515.28;5109094;28;20048;-70
2023/06/09 03:12:10;;;;;;;9.13;2.85;;;;;;;12.18;100.00;101493.06;5098543;28;20048;-70
2023/06/09 03:14:37;;;;;;;7.00;2.65;;;;;;;12.08;100.00;101495.13;5109967;28;20418;-70
2023/06/09 03:17:04;;;;;;;7.63;2.55;;;;;;;12.07;100.00;101508.31;5110263;28;20408;-69
2023/06/09 03:19:31;;;;;;;7.07;2.58;;;;;;;11.98;100.00;101504.22;5110948;28;20408;-69
2023/06/09 03:21:58;;;;;;;7.53;2.67;;;;;;;12.08;100.00;101513.50;5110976;28;20138;-69
2023/06/09 03:24:25;;;;;;;7.80;2.97;;;;;;;11.86;100.00;101505.41;5104180;28;20040;-69
2023/06/09 03:26:52;;;;;;;7.85;2.70;;;;;;;11.66;100.00;101502.53;5108964;28;20390;-69
2023/06/09 03:29:19;;;;;;;6.57;2.35;;;;;;;11.92;100.00;101494.75;5109211;28;20047;-69
2023/06/09 03:31:46;;;;;;;6.18;2.30;;;;;;;11.97;100.00;101510.38;5110643;28;20048;-69
2023/06/09 03:34:13;;;;;;;7.50;2.67;;;;;;;11.90;100.00;101498.31;5110472;28;20055;-69
2023/06/09 03:36:39;;;;;;;7.07;2.63;;;;;;;12.12;100.00;101498.53;5110142;28;20481;-69
2023/06/09 03:39:07;;;;;;;6.72;2.50;;;;;;;12.02;100.00;101504.97;5109663;28;20082;-69
2023/06/09 03:41:34;;;;;;;7.95;2.92;;;;;;;12.24;100.00;101500.75;5109617;28;20134;-69
2023/06/09 03:44:01;;;;;;;7.35;2.70;;;;;;;12.39;100.00;101503.78;5095213;28;20186;-69
2023/06/09 03:46:28;;;;;;;8.38;2.83;;;;;;;12.29;100.00;101490.97;5109240;28;20051;-69
2023/06/09 03:48:54;;;;;;;7.55;2.75;;;;;;;12.13;100.00;101497.63;5108714;28;20063;-69
2023/06/09 03:51:21;;;;;;;8.20;2.95;;;;;;;12.04;100.00;101493.53;5110959;28;20134;-69
2023/06/09 03:53:48;;;;;;;7.38;2.78;;;;;;;12.01;100.00;101492.78;5108866;28;20473;-69
2023/06/09 03:56:14;;;;;;;7.05;2.67;;;;;;;12.11;100.00;101492.44;5109788;28;20039;-69
2023/06/09 03:58:41;;;;;;;7.28;2.50;;;;;;;12.34;100.00;101477.66;5108624;28;20048;-69
2023/06/09 04:01:10;;;;;;;8.13;3.10;;;;;;;12.41;100.00;101501.97;5110308;28;20048;-69
2023/06/09 04:03:38;;;;;;;6.97;2.53;;;;;;;12.05;100.00;101497.00;5110116;28;20496;-69
2023/06/09 04:06:05;;;;;;;7.03;2.60;;;;;;;12.23;100.00;101498.19;5109054;28;20051;-69
2023/06/09 04:08:32;;;;;;;7.07;2.63;;;;;;;12.17;100.00;101501.88;5109872;28;20478;-69
2023/06/09 04:10:59;;;;;;;8.25;2.63;;;;;;;12.18;100.00;101500.09;5102229;28;20131;-69
2023/06/09 04:13:26;;;;;;;8.38;3.08;;;;;;;12.26;100.00;101501.56;5110418;28;20044;-70
2023/06/09 04:15:52;;;;;;;6.97;2.55;;;;;;;12.39;100.00;101498.53;5108984;28;20122;-69
2023/06/09 04:18:19;;;;;;;6.78;2.50;;;;;;;12.19;100.00;101500.03;5106340;28;20127;-69
2023/06/09 04:20:46;;;;;;;7.03;2.60;;;;;;;12.41;100.00;101494.97;5106771;28;20055;-69
2023/06/09 04:23:13;;;;;;;6.50;2.35;;;;;;;12.30;100.00;101497.06;5099111;28;20062;-69
2023/06/09 04:25:41;;;;;;;8.15;3.00;;;;;;;11.96;100.00;101487.66;5108294;28;20075;-69
2023/06/09 04:28:08;;;;;;;7.80;2.53;;;;;;;11.87;100.00;101478.28;5109677;28;20550;-69
2023/06/09 04:30:37;;;;;;;7.28;2.55;;;;;;;12.03;100.00;101489.19;5110338;28;20059;-69
2023/06/09 04:33:04;;;;;;;6.47;2.70;;;;;;;12.02;100.00;101476.09;5110295;28;20486;-69
2023/06/09 04:35:31;;;;;;;6.22;2.28;;;;;;;12.38;100.00;101479.31;5108811;28;20074;-69
2023/06/09 04:38:00;;;;;;;8.00;3.00;;;;;;;12.49;100.00;101477.16;5106999;28;20143;-69
2023/06/09 04:40:29;;;;;;;7.57;2.97;;;;;;;12.37;100.00;101476.72;5098032;28;20051;-69
2023/06/09 04:42:59;;;;;;;6.47;2.50;;;;;;;12.29;100.00;101475.22;5109420;28;20109;-69
2023/06/09 04:45:33;;;;;;;6.28;2.30;;;;;;;12.41;100.00;101489.72;5109956;28;20047;-69
2023/06/09 04:48:01;;;;;;;7.45;3.05;;;;;;;12.42;100.00;101485.31;5109718;28;20630;-69
2023/06/09 04:50:30;;;;;;;6.00;2.38;;;;;;;12.54;100.00;101492.78;5109928;28;20054;-69
2023/06/09 04:52:57;;;;;;;6.43;2.20;;;;;;;12.71;100.00;101497.44;5111861;28;20131;-69
2023/06/09 04:55:26;;;;;;;6.60;2.55;;;;;;;12.59;100.00;101476.84;5111485;28;20477;-70
2023/06/09 04:57:56;;;;;;;7.55;2.80;;;;;;;12.65;100.00;101492.41;5112184;28;20451;-70
2023/06/09 05:00:26;;;;;;;8.32;2.88;;;;;;;12.14;100.00;101499.34;5099433;28;20097;-70
2023/06/09 05:02:56;;;;;;;9.77;3.53;;;;;;;12.47;100.00;101509.66;5101943;28;20056;-70
2023/06/09 05:05:24;;;;;;;11.02;3.92;;;;;;;12.19;100.00;101504.44;5111181;28;20047;-70
2023/06/09 05:07:51;;;;;;;8.60;2.95;;;;;;;12.41;100.00;101505.47;5112913;28;20495;-70
2023/06/09 05:10:18;;;;;;;6.80;2.70;;;;;;;12.61;100.00;101502.16;5109517;28;20058;-70
2023/06/09 05:12:44;;;;;;;8.38;2.65;;;;;;;12.63;100.00;101502.97;5113220;28;20085;-70
2023/06/09 05:15:11;;;;;;;8.05;3.17;;;;;;;12.71;100.00;101497.44;5111560;28;20148;-69
2023/06/09 05:17:41;;;;;;;7.55;2.55;;;;;;;12.76;100.00;101498.16;5113008;28;20754;-69
2023/06/09 05:20:11;;;;;;;6.93;2.63;;;;;;;12.61;100.00;101491.66;5113452;28;20151;-68
2023/06/09 05:22:38;;;;;;;6.63;2.45;;;;;;;12.83;100.00;101498.81;5110809;28;20134;-68
2023/06/09 05:25:08;;;;;;;6.82;2.35;;;;;;;13.06;100.00;101511.97;5108970;28;20505;-69
2023/06/09 05:27:36;;;;;;;7.88;2.80;;;;;;;12.85;100.00;101508.34;5112064;28;20043;-68
2023/06/09 05:30:03;;;;;;;8.00;3.10;;;;;;;12.57;100.00;101510.19;5112632;28;20134;-70
2023/06/09 05:32:30;;;;;;;7.63;2.83;;;;;;;12.57;100.00;101511.06;5108251;28;20481;-68
2023/06/09 05:34:57;;;;;;;8.90;3.33;;;;;;;12.34;100.00;101502.19;5111408;28;20040;-68
2023/06/09 05:37:25;;;;;;;8.00;2.85;;;;;;;12.51;100.00;101512.13;5112277;28;20496;-68
2023/06/09 05:39:52;;;;;;;8.02;3.08;;;;;;;12.46;100.00;101485.13;5111767;28;20439;-68
2023/06/09 05:42:19;;;;;;;7.82;2.50;;;;;;;12.64;100.00;101494.19;5109516;28;20394;-69
2023/06/09 05:44:46;;;;;;;7.50;2.90;;;;;;;12.76;100.00;101513.06;5098770;28;20051;-68
2023/06/09 05:47:13;;;;;;;8.25;2.75;;;;;;;12.85;100.00;101508.34;5107624;28;20433;-68
2023/06/09 05:49:40;;;;;;;7.28;2.60;;;;;;;13.05;100.00;101509.41;5108370;28;20131;-69
2023/06/09 05:52:07;;;;;;;7.32;2.90;;;;;;;12.99;100.00;101504.38;5104352;28;20166;-69
2023/06/09 05:54:34;;;;;;;7.15;2.67;;;;;;;13.02;100.00;101510.38;5103249;28;20464;-68
2023/06/09 05:57:04;;;;;;;6.32;2.15;;;;;;;13.07;100.00;101510.22;5107083;28;20051;-68
2023/06/09 05:59:32;;;;;;;12.43;3.08;;;;;;;12.85;100.00;101510.13;5104881;28;20040;-68
2023/06/09 06:02:00;;;;;;;7.80;2.85;;;;;;;12.96;100.00;101515.88;5110577;28;20056;-68
2023/06/09 06:04:28;;;;;;;6.50;2.47;;;;;;;12.94;100.00;101515.03;5107940;28;20039;-68
2023/06/09 06:06:55;;;;;;;7.68;3.00;;;;;;;13.05;100.00;101519.91;5103768;28;20121;-68
2023/06/09 06:09:22;;;;;;;8.35;3.03;;;;;;;13.05;100.00;101531.31;5100318;28;20410;-68
2023/06/09 06:11:49;;;;;;;8.52;2.67;;;;;;;13.14;100.00;101530.13;5107974;28;20108;-68
2023/06/09 06:14:16;;;;;;;10.55;3.50;;;;;;;13.19;100.00;101522.94;5095662;28;20040;-68
2023/06/09 06:16:43;;;;;;;7.85;2.60;;;;;;;13.63;100.00;101528.38;5095243;28;20048;-68
2023/06/09 06:19:11;;;;;;;7.10;2.63;;;;;;;13.79;100.00;101526.00;5104304;28;20052;-68
2023/06/09 06:21:42;;;;;;;7.20;2.40;;;;;;;13.64;100.00;101524.81;5097870;28;20055;-69
2023/06/09 06:24:09;;;;;;;9.43;2.63;;;;;;;13.62;100.00;101517.91;5107378;28;20480;-68
2023/06/09 06:26:36;;;;;;;6.65;2.42;;;;;;;13.59;100.00;101515.38;5109103;28;20084;-68
2023/06/09 06:29:03;;;;;;;8.07;2.80;;;;;;;13.54;100.00;101527.84;5106025;28;20047;-70
2023/06/09 06:31:30;;;;;;;7.50;2.70;;;;;;;13.52;100.00;101517.38;5099240;28;20090;-68
2023/06/09 06:33:58;;;;;;;7.03;2.50;;;;;;;13.74;100.00;101535.84;5106528;28;20063;-68
2023/06/09 06:36:26;;;;;;;7.50;2.70;;;;;;;13.82;100.00;101519.75;5108286;28;20051;-70
2023/06/09 06:38:53;;;;;;;7.60;2.88;;;;;;;13.89;100.00;101513.34;5110640;28;20139;-70
2023/06/09 06:41:20;;;;;;;6.30;2.42;;;;;;;14.07;100.00;101514.38;5105842;28;20051;-70
2023/06/09 06:43:49;;;;;;;7.60;2.58;;;;;;;13.99;100.00;101504.16;5104489;28;20380;-68
2023/06/09 06:46:18;;;;;;;7.88;3.03;;;;;;;14.04;100.00;101514.50;5108150;28;20489;-69
2023/06/09 06:48:44;;;;;;;7.32;2.45;;;;;;;13.88;100.00;101511.59;5109514;28;20048;-68
2023/06/09 06:51:12;;;;;;;6.95;2.63;;;;;;;13.82;100.00;101509.22;5107894;28;20530;-69
2023/06/09 06:53:39;;;;;;;6.03;2.10;;;;;;;13.83;100.00;101508.31;5099981;28;20039;-69
2023/06/09 06:56:06;;;;;;;7.30;2.80;;;;;;;13.83;100.00;101501.28;5107879;28;20654;-69
2023/06/09 06:58:32;;;;;;;7.10;2.42;;;;;;;14.04;100.00;101504.84;5111356;28;20141;-69
2023/06/09 07:01:00;;;;;;;9.85;3.35;;;;;;;14.12;100.00;101514.22;5111199;28;20130;-69
2023/06/09 07:03:27;;;;;;;6.50;2.35;;;;;;;14.13;100.00;101502.75;5110581;28;20122;-69
2023/06/09 07:05:54;;;;;;;7.53;2.63;;;;;;;14.15;100.00;101512.31;5110386;28;20051;-69
2023/06/09 07:08:20;;;;;;;8.02;3.05;;;;;;;14.10;100.00;101508.16;5108025;28;20046;-69
2023/06/09 07:10:47;;;;;;;7.20;2.63;;;;;;;14.04;100.00;101498.69;5100516;28;20039;-69
2023/06/09 07:13:15;;;;;;;7.45;2.80;;;;;;;13.91;100.00;101492.22;5109676;28;20066;-69
2023/06/09 07:15:42;;;;;;;8.45;2.95;;;;;;;14.22;100.00;101505.88;5108989;28;20051;-69
2023/06/09 07:18:09;;;;;;;6.95;2.70;;;;;;;14.35;100.00;101505.38;5110028;28;20126;-69
2023/06/09 07:20:36;;;;;;;7.63;2.60;;;;;;;14.35;100.00;101500.09;5110393;28;20465;-69
2023/06/09 07:23:03;;;;;;;8.18;2.78;;;;;;;14.26;100.00;101495.22;5110496;27;20047;-69
2023/06/09 07:25:31;;;;;;;7.20;2.40;;;;;;;14.68;100.00;101500.50;5095741;28;20083;-69
2023/06/09 07:27:58;;;;;;;6.55;2.55;;;;;;;14.57;100.00;101505.31;5107853;28;20470;-69
2023/06/09 07:30:24;;;;;;;6.70;2.72;;;;;;;14.60;100.00;101502.59;5108526;28;20044;-69
2023/06/09 07:32:51;;;;;;;8.15;2.95;;;;;;;14.83;100.00;101498.97;5104532;28;20216;-70
2023/06/09 07:35:19;;;;;;;12.50;3.22;;;;;;;14.79;100.00;101500.88;5108218;28;20044;-69
2023/06/09 07:37:48;;;;;;;8.23;3.17;;;;;;;14.79;100.00;101486.88;5098863;28;20046;-69
2023/06/09 07:40:15;;;;;;;11.93;5.60;;;;;;;14.73;100.00;101490.63;5109482;28;20062;-69
2023/06/09 07:42:48;;;;;;;9.50;3.65;;;;;;;14.62;100.00;101500.75;5110431;28;20416;-68
2023/06/09 07:45:16;;;;;;;9.38;3.58;;;;;;;14.64;100.00;101509.44;5108686;28;20058;-67
2023/06/09 07:47:43;;;;;;;10.02;4.15;;;;;;;14.47;100.00;101514.56;5107486;28;20040;-67
2023/06/09 07:50:10;;;;;;;11.85;3.50;;;;;;;14.20;100.00;101517.38;5110943;28;20058;-67
2023/06/09 07:52:38;;;;;;;9.70;3.55;;;;;;;13.86;100.00;101493.28;5110534;28;20048;-67
2023/06/09 07:55:06;;;;;;;8.30;3.42;;;;;;;14.05;100.00;101510.97;5110174;28;20104;-67
2023/06/09 07:57:40;;;;;;;7.88;2.95;;;;;;;14.29;100.00;101509.13;5105937;28;20040;-67
2023/06/09 08:00:09;;;;;;;7.70;3.13;;;;;;;14.17;100.00;101507.84;5107310;28;20568;-67
2023/06/09 08:02:40;;;;;;;13.70;3.75;;;;;;;14.09;100.00;101511.69;5108036;28;20047;-67
2023/06/09 08:05:08;;;;;;;9.10;3.10;;;;;;;14.11;100.00;101517.75;5100213;28;20484;-67
2023/06/09 08:07:35;;;;;;;11.63;3.33;;;;;;;14.27;100.00;101510.97;5109354;28;20496;-67
2023/06/09 08:10:03;;;;;;;8.38;3.10;;;;;;;14.16;100.00;101505.25;5108667;28;20121;-67
2023/06/09 08:12:31;;;;;;;9.60;3.08;;;;;;;14.33;100.00;101523.03;5109129;28;20493;-67
2023/06/09 08:14:58;;;;;;;8.23;3.28;;;;;;;14.51;100.00;101511.72;5106945;28;20134;-67
2023/06/09 08:17:24;;;;;;;11.15;3.08;;;;;;;14.69;100.00;101512.75;5109248;28;20451;-68
2023/06/09 08:19:52;;;;;;;10.35;3.80;;;;;;;14.60;100.00;101515.78;5110177;28;20079;-68
2023/06/09 08:22:18;;;;;;;9.00;3.65;;;;;;;14.57;100.00;101529.03;5110956;28;20071;-68
2023/06/09 08:24:46;;;;;;;8.15;3.20;;;;;;;14.43;100.00;101519.09;5110268;28;20108;-67
2023/06/09 08:27:13;;;;;;;10.65;3.53;;;;;;;14.32;100.00;101518.66;5103336;28;20055;-67
2023/06/09 08:29:39;;;;;;;15.10;3.30;;;;;;;14.50;100.00;101509.13;5112333;28;20050;-67
2023/06/09 08:32:07;;;;;;;9.38;3.40;;;;;;;14.22;100.00;101507.66;5112799;28;20053;-67
2023/06/09 08:34:34;;;;;;;9.32;3.78;;;;;;;14.63;100.00;101514.81;5113188;28;20108;-67
2023/06/09 08:37:01;;;;;;;13.90;4.00;;;;;;;14.38;100.00;101511.38;5113039;28;20043;-68
2023/06/09 08:39:27;;;;;;;11.40;3.45;;;;;;;14.36;100.00;101513.22;5113365;28;20496;-67
2023/06/09 08:41:59;;;;;;;9.23;3.03;;;;;;;14.22;100.00;101515.56;5112861;28;20050;-67
2023/06/09 08:44:28;;;;;;;8.55;3.28;;;;;;;14.40;100.00;101504.25;5114331;28;20046;-67
2023/06/09 08:47:00;;;;;;;10.30;3.90;;;;;;;14.31;100.00;101488.84;5113601;28;20552;-67
2023/06/09 08:49:28;;;;;;;9.93;3.58;;;;;;;14.54;100.00;101501.06;5106096;28;20055;-67
2023/06/09 08:51:57;;;;;;;8.40;3.00;;;;;;;14.53;100.00;101501.13;5111591;28;20439;-68
2023/06/09 08:54:25;;;;;;;11.40;3.35;;;;;;;14.68;100.00;101497.00;5113831;28;20056;-68
2023/06/09 08:56:52;;;;;;;8.88;2.90;;;;;;;14.51;100.00;101508.22;5107649;28;20109;-68
2023/06/09 08:59:20;;;;;;;8.45;3.40;;;;;;;14.85;100.00;101494.50;5105598;28;20495;-68
2023/06/09 09:01:50;;;;;;;7.25;2.88;;;;;;;14.94;100.00;101502.03;5111543;27;20048;-68
2023/06/09 09:04:17;;;;;;;8.88;3.20;;;;;;;14.84;100.00;101508.63;5106427;27;20097;-68
2023/06/09 09:06:45;;;;;;;8.98;3.58;;;;;;;14.84;100.00;101505.97;5108970;27;20047;-68
2023/06/09 09:09:12;;;;;;;8.70;2.83;;;;;;;15.04;100.00;101517.44;5104931;28;20080;-68
2023/06/09 09:11:39;;;;;;;7.10;3.05;;;;;;;14.81;100.00;101521.91;5095263;27;20044;-68
2023/06/09 09:14:10;;;;;;;10.60;3.80;;;;;;;14.53;100.00;101528.31;5111079;28;20489;-68
2023/06/09 09:16:37;;;;;;;8.80;3.72;;;;;;;14.19;100.00;101516.53;5110157;28;20398;-68
2023/06/09 09:19:04;;;;;;;8.10;3.13;;;;;;;14.69;100.00;101522.44;5111415;28;20685;-68
2023/06/09 09:21:37;;;;;;;9.18;3.50;;;;;;;14.64;100.00;101503.31;5113713;28;20058;-68
2023/06/09 09:24:06;;;;;;;8.25;2.88;;;;;;;15.06;100.00;101523.50;5113698;28;20476;-68
2023/06/09 09:26:33;;;;;;;9.40;3.42;;;;;;;14.85;100.00;101530.56;5110530;28;20056;-68
2023/06/09 09:29:04;;;;;;;8.38;3.40;;;;;;;15.18;100.00;101523.81;5105350;28;20040;-68
2023/06/09 09:31:32;;;;;;;7.57;2.58;;;;;;;15.19;100.00;101512.34;5112397;28;20047;-68
2023/06/09 09:34:00;;;;;;;8.45;3.00;;;;;;;15.14;100.00;101505.56;5112159;28;20079;-68
2023/06/09 09:36:27;;;;;;;9.82;3.35;;;;;;;15.30;100.00;101503.09;5112286;28;20051;-68
2023/06/09 09:38:56;;;;;;;10.93;3.65;;;;;;;14.98;100.00;101508.03;5106592;28;20091;-68
2023/06/09 09:41:23;;;;;;;9.25;3.13;;;;;;;15.04;100.00;101520.91;5106367;28;20657;-68
2023/06/09 09:43:55;;;;;;;10.32;3.13;;;;;;;15.03;100.00;101500.72;5103320;28;20040;-68
2023/06/09 09:46:23;;;;;;;7.33;3.00;;;;;;;15.24;100.00;101512.13;5110995;28;20370;-68
2023/06/09 09:48:50;;;;;;;8.18;2.90;;;;;;;15.18;100.00;101491.31;5112722;28;20101;-68
2023/06/09 09:51:20;;;;;;;8.25;3.00;;;;;;;14.97;100.00;101507.13;5112880;28;20049;-68
2023/06/09 09:53:47;;;;;;;8.13;2.97;;;;;;;15.42;100.00;101499.03;5112412;28;20047;-68
2023/06/09 09:56:14;;;;;;;10.25;3.33;;;;;;;15.15;100.00;101492.28;5111152;28;20051;-68
2023/06/09 09:58:44;;;;;;;8.65;3.20;;;;;;;15.23;100.00;101480.53;5097355;28;20039;-68
2023/06/09 10:01:11;;;;;;;8.27;2.78;;;;;;;15.85;100.00;101492.63;5106309;28;20134;-67
2023/06/09 10:03:41;;;;;;;8.20;3.03;;;;;;;15.75;100.00;101505.41;5103711;28;20044;-67
2023/06/09 10:06:10;;;;;;;10.68;3.10;;;;;;;15.63;100.00;101489.25;5105469;28;20511;-68
2023/06/09 10:08:40;;;;;;;9.45;3.33;;;;;;;15.48;100.00;101501.41;5101218;28;20228;-67
2023/06/09 10:11:07;;;;;;;8.68;3.08;;;;;;;15.18;100.00;101507.97;5110875;28;20094;-68
2023/06/09 10:13:34;;;;;;;7.63;3.10;;;;;;;15.35;100.00;101501.06;5108670;28;20493;-67
2023/06/09 10:16:01;;;;;;;8.88;3.38;;;;;;;15.94;100.00;101512.47;5111373;28;20681;-67
2023/06/09 10:18:28;;;;;;;8.85;3.00;;;;;;;15.86;100.00;101510.19;5109436;28;20052;-67
2023/06/09 10:20:55;;;;;;;9.10;2.90;;;;;;;15.85;100.00;101516.41;5111534;28;20044;-68
2023/06/09 10:23:23;;;;;;;6.57;2.40;;;;;;;15.81;100.00;101503.41;5111784;28;20055;-67
2023/06/09 10:25:51;;;;;;;7.45;2.85;;;;;;;16.22;100.00;101516.41;5108931;28;20071;-68
2023/06/09 10:28:19;;;;;;;8.52;2.90;;;;;;;16.17;100.00;101516.63;5111597;28;20039;-68
2023/06/09 10:30:50;;;;;;;10.98;3.05;;;;;;;15.64;100.00;101520.88;5110783;28;20069;-68
2023/06/09 10:33:33;;;;;;;6.40;2.42;;;;;;;15.83;100.00;101523.53;5100140;28;20054;-68
2023/06/09 10:36:07;;;;;;;8.70;3.15;;;;;;;15.69;100.00;101516.22;5111038;28;20044;-68
2023/06/09 10:38:47;;;;;;;7.10;2.60;;;;;;;15.73;100.00;101506.38;5110904;28;20043;-68
2023/06/09 10:41:16;;;;;;;11.05;3.20;;;;;;;15.80;100.00;101517.56;5105546;28;20044;-68
2023/06/09 10:44:08;;;;;;;7.97;3.22;;;;;;;15.81;100.00;101524.53;5111433;28;20051;-67
2023/06/09 10:46:48;;;;;;;7.50;2.60;;;;;;;16.01;100.00;101516.53;5108603;28;20054;-67
2023/06/09 10:49:35;;;;;;;8.45;2.78;;;;;;;16.02;100.00;101522.66;5105173;28;20044;-67
2023/06/09 10:52:03;;;;;;;8.65;3.03;;;;;;;15.54;100.00;101515.13;5109390;28;20058;-67
2023/06/09 10:54:32;;;;;;;8.98;2.95;;;;;;;15.36;100.00;101511.56;5110675;28;20049;-67
2023/06/09 10:57:02;;;;;;;8.48;2.65;;;;;;;15.63;100.00;101516.50;5103903;28;20477;-67
2023/06/09 10:59:30;;;;;;;7.60;2.70;;;;;;;16.00;100.00;101506.03;5103587;28;20047;-67
2023/06/09 11:02:02;;;;;;;9.55;3.10;;;;;;;16.38;100.00;101516.50;5111048;28;20054;-68
2023/06/09 11:04:41;;;;;;;8.20;2.90;;;;;;;15.98;100.00;101508.75;5111194;28;20054;-67
2023/06/09 11:07:09;;;;;;;6.88;2.50;;;;;;;16.25;100.00;101508.31;5107125;28;20055;-67
2023/06/09 11:09:36;;;;;;;6.00;2.20;;;;;;;15.94;100.00;101492.19;5110429;28;20056;-67
2023/06/09 11:12:03;;;;;;;6.75;2.72;;;;;;;16.42;100.00;101499.56;5110218;28;20082;-67
2023/06/09 11:14:45;;;;;;;8.23;2.58;;;;;;;16.39;100.00;101502.38;5108160;28;20047;-67
2023/06/09 11:17:17;;;;;;;8.73;3.25;;;;;;;16.33;100.00;101496.44;5107633;28;20043;-67
2023/06/09 11:19:44;;;;;;;8.10;2.70;;;;;;;15.88;100.00;101492.50;5108503;28;20086;-67
2023/06/09 11:22:12;;;;;;;7.68;2.92;;;;;;;16.29;100.00;101494.91;5108616;28;20405;-68
2023/06/09 11:24:48;;;;;;;10.02;3.00;;;;;;;16.50;100.00;101485.06;5090449;28;20139;-68